sensor_id;sensor_type;location;lat;lon;timestamp;temperature;humidity
33574;DHT22;20085;50.832;4.392;2022-08-14T00:01:17;27.60;43.60
33574;DHT22;20085;50.832;4.392;2022-08-14T00:03:42;27.60;43.60
33574;DHT22;20085;50.832;4.392;2022-08-14T00:06:08;27.60;43.90
33574;DHT22;20085;50.832;4.392;2022-08-14T00:08:34;27.60;43.70
33574;DHT22;20085;50.832;4.392;2022-08-14T00:11:00;27.60;43.70
33574;DHT22;20085;50.832;4.392;2022-08-14T00:13:27;27.60;43.90
33574;DHT22;20085;50.832;4.392;2022-08-14T00:15:55;27.50;43.90
33574;DHT22;20085;50.832;4.392;2022-08-14T00:18:23;27.50;43.70
33574;DHT22;20085;50.832;4.392;2022-08-14T00:20:50;27.50;43.60
33574;DHT22;20085;50.832;4.392;2022-08-14T00:23:16;27.40;43.60
33574;DHT22;20085;50.832;4.392;2022-08-14T00:25:44;27.30;43.70
33574;DHT22;20085;50.832;4.392;2022-08-14T00:28:12;27.30;43.70
33574;DHT22;20085;50.832;4.392;2022-08-14T00:30:39;27.30;43.60
33574;DHT22;20085;50.832;4.392;2022-08-14T00:33:04;27.30;43.50
33574;DHT22;20085;50.832;4.392;2022-08-14T00:35:31;27.40;43.60
33574;DHT22;20085;50.832;4.392;2022-08-14T00:37:57;27.40;43.60
33574;DHT22;20085;50.832;4.392;2022-08-14T00:40:23;27.40;43.60
33574;DHT22;20085;50.832;4.392;2022-08-14T00:42:48;27.40;43.50
33574;DHT22;20085;50.832;4.392;2022-08-14T00:45:15;27.30;43.50
33574;DHT22;20085;50.832;4.392;2022-08-14T00:47:43;27.30;43.50
33574;DHT22;20085;50.832;4.392;2022-08-14T00:50:11;27.30;43.60
33574;DHT22;20085;50.832;4.392;2022-08-14T00:52:38;27.20;44.30
33574;DHT22;20085;50.832;4.392;2022-08-14T00:55:06;27.20;43.80
33574;DHT22;20085;50.832;4.392;2022-08-14T00:57:35;27.10;43.90
33574;DHT22;20085;50.832;4.392;2022-08-14T01:00:03;27.20;44.10
33574;DHT22;20085;50.832;4.392;2022-08-14T01:02:29;27.10;44.10
33574;DHT22;20085;50.832;4.392;2022-08-14T01:04:57;27.00;44.30
33574;DHT22;20085;50.832;4.392;2022-08-14T01:07:25;26.90;44.60
33574;DHT22;20085;50.832;4.392;2022-08-14T01:09:53;26.90;44.40
33574;DHT22;20085;50.832;4.392;2022-08-14T01:12:19;26.90;44.40
33574;DHT22;20085;50.832;4.392;2022-08-14T01:14:45;26.90;44.20
33574;DHT22;20085;50.832;4.392;2022-08-14T01:17:11;26.90;44.40
33574;DHT22;20085;50.832;4.392;2022-08-14T01:19:37;26.80;44.50
33574;DHT22;20085;50.832;4.392;2022-08-14T01:22:22;26.80;44.50
33574;DHT22;20085;50.832;4.392;2022-08-14T01:24:48;26.70;44.50
33574;DHT22;20085;50.832;4.392;2022-08-14T01:27:18;26.80;44.30
33574;DHT22;20085;50.832;4.392;2022-08-14T01:29:48;26.70;44.20
33574;DHT22;20085;50.832;4.392;2022-08-14T01:32:15;26.60;44.20
33574;DHT22;20085;50.832;4.392;2022-08-14T01:34:46;26.50;44.30
33574;DHT22;20085;50.832;4.392;2022-08-14T01:37:11;26.60;44.30
33574;DHT22;20085;50.832;4.392;2022-08-14T01:39:37;26.50;44.40
33574;DHT22;20085;50.832;4.392;2022-08-14T01:42:03;26.50;44.50
33574;DHT22;20085;50.832;4.392;2022-08-14T01:44:29;26.50;44.50
33574;DHT22;20085;50.832;4.392;2022-08-14T01:47:01;26.50;44.50
33574;DHT22;20085;50.832;4.392;2022-08-14T01:49:27;26.50;44.50
33574;DHT22;20085;50.832;4.392;2022-08-14T01:51:52;26.50;44.50
33574;DHT22;20085;50.832;4.392;2022-08-14T01:54:21;26.50;44.50
33574;DHT22;20085;50.832;4.392;2022-08-14T01:56:51;26.50;44.50
33574;DHT22;20085;50.832;4.392;2022-08-14T02:01:44;26.50;44.70
33574;DHT22;20085;50.832;4.392;2022-08-14T02:04:11;26.50;44.70
33574;DHT22;20085;50.832;4.392;2022-08-14T02:06:37;26.40;44.80
33574;DHT22;20085;50.832;4.392;2022-08-14T02:09:07;26.40;45.00
33574;DHT22;20085;50.832;4.392;2022-08-14T02:11:32;26.40;45.00
33574;DHT22;20085;50.832;4.392;2022-08-14T02:16:32;26.40;44.90
33574;DHT22;20085;50.832;4.392;2022-08-14T02:19:04;26.40;45.00
33574;DHT22;20085;50.832;4.392;2022-08-14T02:21:31;26.40;45.10
33574;DHT22;20085;50.832;4.392;2022-08-14T02:23:59;26.30;45.10
33574;DHT22;20085;50.832;4.392;2022-08-14T02:26:29;26.30;45.10
33574;DHT22;20085;50.832;4.392;2022-08-14T02:28:58;26.30;45.00
33574;DHT22;20085;50.832;4.392;2022-08-14T02:31:28;26.20;44.90
33574;DHT22;20085;50.832;4.392;2022-08-14T02:34:12;26.20;44.80
33574;DHT22;20085;50.832;4.392;2022-08-14T02:36:40;26.20;44.80
33574;DHT22;20085;50.832;4.392;2022-08-14T02:39:10;26.20;44.90
33574;DHT22;20085;50.832;4.392;2022-08-14T02:41:36;26.10;45.00
33574;DHT22;20085;50.832;4.392;2022-08-14T02:44:04;26.10;45.30
33574;DHT22;20085;50.832;4.392;2022-08-14T02:46:30;26.10;45.30
33574;DHT22;20085;50.832;4.392;2022-08-14T02:48:56;26.10;45.10
33574;DHT22;20085;50.832;4.392;2022-08-14T02:51:22;26.10;45.00
33574;DHT22;20085;50.832;4.392;2022-08-14T02:53:48;26.20;45.10
33574;DHT22;20085;50.832;4.392;2022-08-14T02:56:15;26.20;45.00
33574;DHT22;20085;50.832;4.392;2022-08-14T02:58:44;26.10;45.10
33574;DHT22;20085;50.832;4.392;2022-08-14T03:01:12;26.00;45.10
33574;DHT22;20085;50.832;4.392;2022-08-14T03:03:38;26.00;45.30
33574;DHT22;20085;50.832;4.392;2022-08-14T03:06:05;25.90;45.50
33574;DHT22;20085;50.832;4.392;2022-08-14T03:08:32;25.90;45.90
33574;DHT22;20085;50.832;4.392;2022-08-14T03:11:03;25.90;45.90
33574;DHT22;20085;50.832;4.392;2022-08-14T03:13:31;25.90;45.80
33574;DHT22;20085;50.832;4.392;2022-08-14T03:16:00;25.90;45.80
33574;DHT22;20085;50.832;4.392;2022-08-14T03:18:27;25.90;46.00
33574;DHT22;20085;50.832;4.392;2022-08-14T03:20:53;25.80;46.10
33574;DHT22;20085;50.832;4.392;2022-08-14T03:23:19;25.80;46.20
33574;DHT22;20085;50.832;4.392;2022-08-14T03:25:45;25.90;46.30
33574;DHT22;20085;50.832;4.392;2022-08-14T03:28:11;25.80;46.30
33574;DHT22;20085;50.832;4.392;2022-08-14T03:30:37;25.70;46.30
33574;DHT22;20085;50.832;4.392;2022-08-14T03:33:04;25.60;46.50
33574;DHT22;20085;50.832;4.392;2022-08-14T03:35:30;25.70;46.40
33574;DHT22;20085;50.832;4.392;2022-08-14T03:38:05;25.60;46.60
33574;DHT22;20085;50.832;4.392;2022-08-14T03:40:33;25.60;46.40
33574;DHT22;20085;50.832;4.392;2022-08-14T03:42:59;25.60;46.50
33574;DHT22;20085;50.832;4.392;2022-08-14T03:45:30;25.60;46.40
33574;DHT22;20085;50.832;4.392;2022-08-14T03:47:56;25.60;46.50
33574;DHT22;20085;50.832;4.392;2022-08-14T03:50:23;25.60;46.30
33574;DHT22;20085;50.832;4.392;2022-08-14T03:52:49;25.50;46.30
33574;DHT22;20085;50.832;4.392;2022-08-14T03:55:14;25.50;46.30
33574;DHT22;20085;50.832;4.392;2022-08-14T03:57:40;25.50;46.50
33574;DHT22;20085;50.832;4.392;2022-08-14T04:00:09;25.40;46.50
33574;DHT22;20085;50.832;4.392;2022-08-14T04:02:39;25.50;46.90
33574;DHT22;20085;50.832;4.392;2022-08-14T04:05:07;25.40;46.80
33574;DHT22;20085;50.832;4.392;2022-08-14T04:07:33;25.40;47.00
33574;DHT22;20085;50.832;4.392;2022-08-14T04:09:59;25.40;47.10
33574;DHT22;20085;50.832;4.392;2022-08-14T04:12:26;25.40;47.10
33574;DHT22;20085;50.832;4.392;2022-08-14T04:14:51;25.40;47.30
33574;DHT22;20085;50.832;4.392;2022-08-14T04:17:20;25.30;47.40
33574;DHT22;20085;50.832;4.392;2022-08-14T04:19:46;25.30;47.50
33574;DHT22;20085;50.832;4.392;2022-08-14T04:22:12;25.30;47.60
33574;DHT22;20085;50.832;4.392;2022-08-14T04:24:38;25.40;47.60
33574;DHT22;20085;50.832;4.392;2022-08-14T04:27:13;25.40;47.50
33574;DHT22;20085;50.832;4.392;2022-08-14T04:29:41;25.40;47.40
33574;DHT22;20085;50.832;4.392;2022-08-14T04:32:08;25.40;47.20
33574;DHT22;20085;50.832;4.392;2022-08-14T04:34:35;25.30;47.20
33574;DHT22;20085;50.832;4.392;2022-08-14T04:37:04;25.30;47.40
33574;DHT22;20085;50.832;4.392;2022-08-14T04:39:48;25.20;47.60
33574;DHT22;20085;50.832;4.392;2022-08-14T04:42:33;25.20;47.70
33574;DHT22;20085;50.832;4.392;2022-08-14T04:45:22;25.20;47.70
33574;DHT22;20085;50.832;4.392;2022-08-14T04:47:51;25.20;47.60
33574;DHT22;20085;50.832;4.392;2022-08-14T04:50:38;25.10;47.90
33574;DHT22;20085;50.832;4.392;2022-08-14T04:53:04;25.00;47.90
33574;DHT22;20085;50.832;4.392;2022-08-14T04:55:30;25.10;47.80
33574;DHT22;20085;50.832;4.392;2022-08-14T04:57:56;25.10;47.40
33574;DHT22;20085;50.832;4.392;2022-08-14T05:00:21;25.20;47.10
33574;DHT22;20085;50.832;4.392;2022-08-14T05:02:48;25.20;47.10
33574;DHT22;20085;50.832;4.392;2022-08-14T05:05:14;25.20;47.60
33574;DHT22;20085;50.832;4.392;2022-08-14T05:07:39;25.10;47.50
33574;DHT22;20085;50.832;4.392;2022-08-14T05:10:07;25.20;47.70
33574;DHT22;20085;50.832;4.392;2022-08-14T05:12:33;25.20;47.90
33574;DHT22;20085;50.832;4.392;2022-08-14T05:14:59;25.00;48.10
33574;DHT22;20085;50.832;4.392;2022-08-14T05:17:25;25.00;48.30
33574;DHT22;20085;50.832;4.392;2022-08-14T05:19:51;25.00;48.40
33574;DHT22;20085;50.832;4.392;2022-08-14T05:22:18;25.10;48.30
33574;DHT22;20085;50.832;4.392;2022-08-14T05:24:45;25.00;48.70
33574;DHT22;20085;50.832;4.392;2022-08-14T05:27:12;24.90;48.70
33574;DHT22;20085;50.832;4.392;2022-08-14T05:29:38;24.80;48.80
33574;DHT22;20085;50.832;4.392;2022-08-14T05:32:05;24.80;48.60
33574;DHT22;20085;50.832;4.392;2022-08-14T05:34:32;24.80;48.60
33574;DHT22;20085;50.832;4.392;2022-08-14T05:37:00;24.80;48.60
33574;DHT22;20085;50.832;4.392;2022-08-14T05:39:26;24.80;48.80
33574;DHT22;20085;50.832;4.392;2022-08-14T05:41:52;24.70;48.80
33574;DHT22;20085;50.832;4.392;2022-08-14T05:44:19;24.70;48.90
33574;DHT22;20085;50.832;4.392;2022-08-14T05:46:45;24.70;48.90
33574;DHT22;20085;50.832;4.392;2022-08-14T05:49:10;24.80;49.10
33574;DHT22;20085;50.832;4.392;2022-08-14T05:51:36;24.50;49.40
33574;DHT22;20085;50.832;4.392;2022-08-14T05:54:03;24.50;49.40
33574;DHT22;20085;50.832;4.392;2022-08-14T05:56:28;24.50;49.40
33574;DHT22;20085;50.832;4.392;2022-08-14T05:58:54;24.50;49.40
33574;DHT22;20085;50.832;4.392;2022-08-14T06:01:20;24.50;49.40
33574;DHT22;20085;50.832;4.392;2022-08-14T06:03:45;24.60;49.30
33574;DHT22;20085;50.832;4.392;2022-08-14T06:06:11;24.60;49.50
33574;DHT22;20085;50.832;4.392;2022-08-14T06:08:37;24.70;49.30
33574;DHT22;20085;50.832;4.392;2022-08-14T06:11:06;24.80;49.00
33574;DHT22;20085;50.832;4.392;2022-08-14T06:13:33;24.90;48.90
33574;DHT22;20085;50.832;4.392;2022-08-14T06:15:59;24.90;49.20
33574;DHT22;20085;50.832;4.392;2022-08-14T06:18:25;25.00;48.80
33574;DHT22;20085;50.832;4.392;2022-08-14T06:20:51;24.90;49.10
33574;DHT22;20085;50.832;4.392;2022-08-14T06:23:17;24.90;49.30
33574;DHT22;20085;50.832;4.392;2022-08-14T06:25:43;25.00;48.40
33574;DHT22;20085;50.832;4.392;2022-08-14T06:28:19;25.00;47.90
33574;DHT22;20085;50.832;4.392;2022-08-14T06:30:45;25.00;47.80
33574;DHT22;20085;50.832;4.392;2022-08-14T06:33:11;25.10;47.80
33574;DHT22;20085;50.832;4.392;2022-08-14T06:35:37;25.20;48.00
33574;DHT22;20085;50.832;4.392;2022-08-14T06:38:03;25.20;48.00
33574;DHT22;20085;50.832;4.392;2022-08-14T06:40:34;25.20;48.10
33574;DHT22;20085;50.832;4.392;2022-08-14T06:43:02;25.30;48.00
33574;DHT22;20085;50.832;4.392;2022-08-14T06:45:28;25.40;48.10
33574;DHT22;20085;50.832;4.392;2022-08-14T06:47:54;25.40;47.90
33574;DHT22;20085;50.832;4.392;2022-08-14T06:50:22;25.50;47.50
33574;DHT22;20085;50.832;4.392;2022-08-14T06:52:48;25.50;47.20
33574;DHT22;20085;50.832;4.392;2022-08-14T06:55:16;25.60;47.00
33574;DHT22;20085;50.832;4.392;2022-08-14T06:57:46;25.60;46.70
33574;DHT22;20085;50.832;4.392;2022-08-14T07:00:14;25.60;46.80
33574;DHT22;20085;50.832;4.392;2022-08-14T07:02:40;25.70;46.70
33574;DHT22;20085;50.832;4.392;2022-08-14T07:05:24;25.70;46.70
33574;DHT22;20085;50.832;4.392;2022-08-14T07:08:15;25.80;46.80
33574;DHT22;20085;50.832;4.392;2022-08-14T07:10:46;25.80;46.20
33574;DHT22;20085;50.832;4.392;2022-08-14T07:13:13;25.90;46.20
33574;DHT22;20085;50.832;4.392;2022-08-14T07:15:39;25.90;46.00
33574;DHT22;20085;50.832;4.392;2022-08-14T07:18:09;26.00;46.10
33574;DHT22;20085;50.832;4.392;2022-08-14T07:20:37;26.00;45.90
33574;DHT22;20085;50.832;4.392;2022-08-14T07:23:04;26.00;45.50
33574;DHT22;20085;50.832;4.392;2022-08-14T07:25:31;26.10;45.30
33574;DHT22;20085;50.832;4.392;2022-08-14T07:27:57;26.10;45.20
33574;DHT22;20085;50.832;4.392;2022-08-14T07:30:25;26.20;45.20
33574;DHT22;20085;50.832;4.392;2022-08-14T07:32:51;26.20;45.30
33574;DHT22;20085;50.832;4.392;2022-08-14T07:35:17;26.20;45.40
33574;DHT22;20085;50.832;4.392;2022-08-14T07:37:47;26.30;45.40
33574;DHT22;20085;50.832;4.392;2022-08-14T07:40:15;26.40;45.20
33574;DHT22;20085;50.832;4.392;2022-08-14T07:42:42;26.40;45.20
33574;DHT22;20085;50.832;4.392;2022-08-14T07:45:07;26.50;45.20
33574;DHT22;20085;50.832;4.392;2022-08-14T07:47:38;26.60;45.00
33574;DHT22;20085;50.832;4.392;2022-08-14T07:50:14;26.60;45.30
33574;DHT22;20085;50.832;4.392;2022-08-14T07:52:41;26.60;45.20
33574;DHT22;20085;50.832;4.392;2022-08-14T07:55:08;26.70;45.10
33574;DHT22;20085;50.832;4.392;2022-08-14T07:57:34;26.80;45.00
33574;DHT22;20085;50.832;4.392;2022-08-14T08:00:05;26.90;44.50
33574;DHT22;20085;50.832;4.392;2022-08-14T08:02:32;27.00;44.50
33574;DHT22;20085;50.832;4.392;2022-08-14T08:04:59;27.00;44.70
33574;DHT22;20085;50.832;4.392;2022-08-14T08:07:28;27.20;45.40
33574;DHT22;20085;50.832;4.392;2022-08-14T08:09:56;27.40;45.10
33574;DHT22;20085;50.832;4.392;2022-08-14T08:12:24;27.60;45.10
33574;DHT22;20085;50.832;4.392;2022-08-14T08:14:50;27.70;45.00
33574;DHT22;20085;50.832;4.392;2022-08-14T08:17:17;27.80;44.80
33574;DHT22;20085;50.832;4.392;2022-08-14T08:19:45;28.00;44.80
33574;DHT22;20085;50.832;4.392;2022-08-14T08:22:12;28.00;44.60
33574;DHT22;20085;50.832;4.392;2022-08-14T08:24:37;28.10;43.80
33574;DHT22;20085;50.832;4.392;2022-08-14T08:27:16;28.10;43.70
33574;DHT22;20085;50.832;4.392;2022-08-14T08:29:42;28.20;43.30
33574;DHT22;20085;50.832;4.392;2022-08-14T08:32:08;28.30;43.50
33574;DHT22;20085;50.832;4.392;2022-08-14T08:34:44;28.40;42.70
33574;DHT22;20085;50.832;4.392;2022-08-14T08:37:11;28.30;42.50
33574;DHT22;20085;50.832;4.392;2022-08-14T08:39:45;28.50;42.10
33574;DHT22;20085;50.832;4.392;2022-08-14T08:42:11;28.50;42.00
33574;DHT22;20085;50.832;4.392;2022-08-14T08:44:37;28.50;41.80
33574;DHT22;20085;50.832;4.392;2022-08-14T08:47:03;28.50;42.10
33574;DHT22;20085;50.832;4.392;2022-08-14T08:49:40;28.50;42.40
33574;DHT22;20085;50.832;4.392;2022-08-14T08:52:09;28.40;42.20
33574;DHT22;20085;50.832;4.392;2022-08-14T08:54:35;28.40;42.10
33574;DHT22;20085;50.832;4.392;2022-08-14T08:57:10;28.50;42.30
33574;DHT22;20085;50.832;4.392;2022-08-14T08:59:36;28.40;42.40
33574;DHT22;20085;50.832;4.392;2022-08-14T09:02:04;28.40;42.50
33574;DHT22;20085;50.832;4.392;2022-08-14T09:04:41;28.40;42.60
33574;DHT22;20085;50.832;4.392;2022-08-14T09:07:09;28.40;42.80
33574;DHT22;20085;50.832;4.392;2022-08-14T09:09:35;28.40;42.60
33574;DHT22;20085;50.832;4.392;2022-08-14T09:12:17;28.40;42.80
33574;DHT22;20085;50.832;4.392;2022-08-14T09:14:43;28.30;43.10
33574;DHT22;20085;50.832;4.392;2022-08-14T09:17:11;28.50;42.70
33574;DHT22;20085;50.832;4.392;2022-08-14T09:19:36;28.50;42.40
33574;DHT22;20085;50.832;4.392;2022-08-14T09:22:02;28.40;41.90
33574;DHT22;20085;50.832;4.392;2022-08-14T09:24:31;28.40;41.90
33574;DHT22;20085;50.832;4.392;2022-08-14T09:26:57;28.40;42.00
33574;DHT22;20085;50.832;4.392;2022-08-14T09:29:23;28.50;42.10
33574;DHT22;20085;50.832;4.392;2022-08-14T09:31:52;28.50;43.50
33574;DHT22;20085;50.832;4.392;2022-08-14T09:34:47;28.50;43.40
33574;DHT22;20085;50.832;4.392;2022-08-14T09:37:38;28.60;43.00
33574;DHT22;20085;50.832;4.392;2022-08-14T09:40:26;28.70;43.40
33574;DHT22;20085;50.832;4.392;2022-08-14T09:45:50;28.70;43.60
33574;DHT22;20085;50.832;4.392;2022-08-14T09:48:21;28.70;44.00
33574;DHT22;20085;50.832;4.392;2022-08-14T09:50:58;28.70;43.90
33574;DHT22;20085;50.832;4.392;2022-08-14T09:53:40;28.80;44.00
33574;DHT22;20085;50.832;4.392;2022-08-14T09:56:11;28.80;44.30
33574;DHT22;20085;50.832;4.392;2022-08-14T09:58:42;28.90;44.20
33574;DHT22;20085;50.832;4.392;2022-08-14T10:01:17;28.90;44.30
33574;DHT22;20085;50.832;4.392;2022-08-14T10:03:51;28.90;44.50
33574;DHT22;20085;50.832;4.392;2022-08-14T10:06:26;29.00;44.80
33574;DHT22;20085;50.832;4.392;2022-08-14T10:11:23;29.20;44.70
33574;DHT22;20085;50.832;4.392;2022-08-14T10:14:10;29.40;43.80
33574;DHT22;20085;50.832;4.392;2022-08-14T10:16:42;29.50;42.00
33574;DHT22;20085;50.832;4.392;2022-08-14T10:19:13;29.60;41.90
33574;DHT22;20085;50.832;4.392;2022-08-14T10:21:42;29.50;40.90
33574;DHT22;20085;50.832;4.392;2022-08-14T10:24:09;29.50;40.60
33574;DHT22;20085;50.832;4.392;2022-08-14T10:26:35;29.40;41.40
33574;DHT22;20085;50.832;4.392;2022-08-14T10:29:09;29.50;40.80
33574;DHT22;20085;50.832;4.392;2022-08-14T10:31:37;29.50;40.60
33574;DHT22;20085;50.832;4.392;2022-08-14T10:34:08;29.60;39.10
33574;DHT22;20085;50.832;4.392;2022-08-14T10:36:40;29.70;39.80
33574;DHT22;20085;50.832;4.392;2022-08-14T10:39:15;29.60;38.60
33574;DHT22;20085;50.832;4.392;2022-08-14T10:41:42;29.70;38.40
33574;DHT22;20085;50.832;4.392;2022-08-14T10:44:14;29.70;38.10
33574;DHT22;20085;50.832;4.392;2022-08-14T10:46:51;29.70;38.20
33574;DHT22;20085;50.832;4.392;2022-08-14T10:49:21;29.70;38.60
33574;DHT22;20085;50.832;4.392;2022-08-14T10:54:30;29.70;37.30
33574;DHT22;20085;50.832;4.392;2022-08-14T10:57:15;29.70;37.90
33574;DHT22;20085;50.832;4.392;2022-08-14T10:59:44;29.80;38.80
33574;DHT22;20085;50.832;4.392;2022-08-14T11:02:20;29.90;37.40
33574;DHT22;20085;50.832;4.392;2022-08-14T11:07:24;30.00;34.90
33574;DHT22;20085;50.832;4.392;2022-08-14T11:09:58;29.90;36.00
33574;DHT22;20085;50.832;4.392;2022-08-14T11:12:24;29.90;34.80
33574;DHT22;20085;50.832;4.392;2022-08-14T11:14:56;29.90;35.20
33574;DHT22;20085;50.832;4.392;2022-08-14T11:17:26;29.90;34.90
33574;DHT22;20085;50.832;4.392;2022-08-14T11:19:57;29.90;34.60
33574;DHT22;20085;50.832;4.392;2022-08-14T11:22:27;30.00;35.60
33574;DHT22;20085;50.832;4.392;2022-08-14T11:25:03;30.10;35.80
33574;DHT22;20085;50.832;4.392;2022-08-14T11:27:31;30.10;35.00
33574;DHT22;20085;50.832;4.392;2022-08-14T11:30:06;30.20;34.50
33574;DHT22;20085;50.832;4.392;2022-08-14T11:32:33;30.20;34.40
33574;DHT22;20085;50.832;4.392;2022-08-14T11:35:02;30.20;34.20
33574;DHT22;20085;50.832;4.392;2022-08-14T11:37:28;30.30;34.40
33574;DHT22;20085;50.832;4.392;2022-08-14T11:39:58;30.20;33.90
33574;DHT22;20085;50.832;4.392;2022-08-14T11:42:26;30.20;34.50
33574;DHT22;20085;50.832;4.392;2022-08-14T11:44:56;30.20;33.90
33574;DHT22;20085;50.832;4.392;2022-08-14T11:47:22;30.20;34.40
33574;DHT22;20085;50.832;4.392;2022-08-14T11:49:49;30.10;34.30
33574;DHT22;20085;50.832;4.392;2022-08-14T11:52:15;30.10;34.10
33574;DHT22;20085;50.832;4.392;2022-08-14T11:54:43;30.20;33.90
33574;DHT22;20085;50.832;4.392;2022-08-14T11:57:15;30.30;33.80
33574;DHT22;20085;50.832;4.392;2022-08-14T11:59:42;30.40;34.10
33574;DHT22;20085;50.832;4.392;2022-08-14T12:02:15;30.40;33.60
33574;DHT22;20085;50.832;4.392;2022-08-14T12:04:52;30.50;33.20
33574;DHT22;20085;50.832;4.392;2022-08-14T12:07:18;30.70;32.90
33574;DHT22;20085;50.832;4.392;2022-08-14T12:09:46;30.70;32.70
33574;DHT22;20085;50.832;4.392;2022-08-14T12:12:18;30.80;32.20
33574;DHT22;20085;50.832;4.392;2022-08-14T12:14:54;30.90;32.10
33574;DHT22;20085;50.832;4.392;2022-08-14T12:17:22;31.00;32.40
33574;DHT22;20085;50.832;4.392;2022-08-14T12:20:04;31.20;32.20
33574;DHT22;20085;50.832;4.392;2022-08-14T12:22:40;31.30;32.40
33574;DHT22;20085;50.832;4.392;2022-08-14T12:25:09;31.40;31.30
33574;DHT22;20085;50.832;4.392;2022-08-14T12:27:45;31.50;30.30
33574;DHT22;20085;50.832;4.392;2022-08-14T12:30:31;31.60;29.80
33574;DHT22;20085;50.832;4.392;2022-08-14T12:33:00;31.80;29.80
33574;DHT22;20085;50.832;4.392;2022-08-14T12:35:41;32.00;30.20
33574;DHT22;20085;50.832;4.392;2022-08-14T12:38:11;32.10;29.20
33574;DHT22;20085;50.832;4.392;2022-08-14T12:40:45;32.20;28.80
33574;DHT22;20085;50.832;4.392;2022-08-14T12:43:12;32.50;28.50
33574;DHT22;20085;50.832;4.392;2022-08-14T12:45:38;32.60;28.50
33574;DHT22;20085;50.832;4.392;2022-08-14T12:48:04;32.60;28.20
33574;DHT22;20085;50.832;4.392;2022-08-14T12:50:38;32.60;28.90
33574;DHT22;20085;50.832;4.392;2022-08-14T12:53:04;32.80;28.20
33574;DHT22;20085;50.832;4.392;2022-08-14T12:55:30;32.90;28.30
33574;DHT22;20085;50.832;4.392;2022-08-14T12:58:00;32.80;28.50
33574;DHT22;20085;50.832;4.392;2022-08-14T13:00:28;32.90;28.50
33574;DHT22;20085;50.832;4.392;2022-08-14T13:02:54;33.00;29.20
33574;DHT22;20085;50.832;4.392;2022-08-14T13:05:28;33.10;29.00
33574;DHT22;20085;50.832;4.392;2022-08-14T13:07:57;33.10;28.70
33574;DHT22;20085;50.832;4.392;2022-08-14T13:10:24;33.20;29.10
33574;DHT22;20085;50.832;4.392;2022-08-14T13:12:54;33.20;29.20
33574;DHT22;20085;50.832;4.392;2022-08-14T13:15:20;33.20;29.20
33574;DHT22;20085;50.832;4.392;2022-08-14T13:17:48;33.40;28.70
33574;DHT22;20085;50.832;4.392;2022-08-14T13:20:17;33.50;28.70
33574;DHT22;20085;50.832;4.392;2022-08-14T13:22:44;33.60;29.00
33574;DHT22;20085;50.832;4.392;2022-08-14T13:25:20;33.70;28.80
33574;DHT22;20085;50.832;4.392;2022-08-14T13:27:48;33.70;28.50
33574;DHT22;20085;50.832;4.392;2022-08-14T13:30:15;33.80;28.40
33574;DHT22;20085;50.832;4.392;2022-08-14T13:32:44;33.80;28.50
33574;DHT22;20085;50.832;4.392;2022-08-14T13:35:12;34.00;28.40
33574;DHT22;20085;50.832;4.392;2022-08-14T13:37:39;34.10;28.40
33574;DHT22;20085;50.832;4.392;2022-08-14T13:40:06;34.30;28.40
33574;DHT22;20085;50.832;4.392;2022-08-14T13:42:33;34.30;28.70
33574;DHT22;20085;50.832;4.392;2022-08-14T13:45:00;34.30;28.70
33574;DHT22;20085;50.832;4.392;2022-08-14T13:47:28;34.60;28.60
33574;DHT22;20085;50.832;4.392;2022-08-14T13:50:03;34.50;28.30
33574;DHT22;20085;50.832;4.392;2022-08-14T13:52:42;34.50;28.20
33574;DHT22;20085;50.832;4.392;2022-08-14T13:55:09;34.50;28.10
33574;DHT22;20085;50.832;4.392;2022-08-14T13:57:39;34.40;28.20
33574;DHT22;20085;50.832;4.392;2022-08-14T14:00:09;34.40;28.70
33574;DHT22;20085;50.832;4.392;2022-08-14T14:02:40;34.30;28.30
33574;DHT22;20085;50.832;4.392;2022-08-14T14:05:07;34.30;28.10
33574;DHT22;20085;50.832;4.392;2022-08-14T14:07:35;34.20;27.70
33574;DHT22;20085;50.832;4.392;2022-08-14T14:10:06;34.30;27.70
33574;DHT22;20085;50.832;4.392;2022-08-14T14:12:34;34.50;27.70
33574;DHT22;20085;50.832;4.392;2022-08-14T14:15:05;34.60;27.50
33574;DHT22;20085;50.832;4.392;2022-08-14T14:17:34;34.60;27.60
33574;DHT22;20085;50.832;4.392;2022-08-14T14:20:00;34.60;27.20
33574;DHT22;20085;50.832;4.392;2022-08-14T14:22:26;34.50;27.50
33574;DHT22;20085;50.832;4.392;2022-08-14T14:24:52;34.50;27.50
33574;DHT22;20085;50.832;4.392;2022-08-14T14:27:19;34.60;28.60
33574;DHT22;20085;50.832;4.392;2022-08-14T14:29:47;34.50;27.40
33574;DHT22;20085;50.832;4.392;2022-08-14T14:32:15;34.30;27.70
33574;DHT22;20085;50.832;4.392;2022-08-14T14:34:42;34.20;27.50
33574;DHT22;20085;50.832;4.392;2022-08-14T14:37:11;34.20;27.70
33574;DHT22;20085;50.832;4.392;2022-08-14T14:39:39;34.10;27.90
33574;DHT22;20085;50.832;4.392;2022-08-14T14:42:05;34.20;27.90
33574;DHT22;20085;50.832;4.392;2022-08-14T14:44:35;34.10;27.90
33574;DHT22;20085;50.832;4.392;2022-08-14T14:47:07;34.10;28.40
33574;DHT22;20085;50.832;4.392;2022-08-14T14:49:33;33.90;28.50
33574;DHT22;20085;50.832;4.392;2022-08-14T14:52:01;33.70;28.90
33574;DHT22;20085;50.832;4.392;2022-08-14T14:54:30;33.70;29.30
33574;DHT22;20085;50.832;4.392;2022-08-14T14:57:00;33.70;29.00
33574;DHT22;20085;50.832;4.392;2022-08-14T14:59:26;33.80;28.90
33574;DHT22;20085;50.832;4.392;2022-08-14T15:01:58;33.90;28.70
33574;DHT22;20085;50.832;4.392;2022-08-14T15:04:24;33.90;29.10
33574;DHT22;20085;50.832;4.392;2022-08-14T15:06:50;33.90;28.90
33574;DHT22;20085;50.832;4.392;2022-08-14T15:09:17;33.90;29.10
33574;DHT22;20085;50.832;4.392;2022-08-14T15:11:43;33.90;28.90
33574;DHT22;20085;50.832;4.392;2022-08-14T15:14:09;33.80;28.90
33574;DHT22;20085;50.832;4.392;2022-08-14T15:16:35;33.80;28.50
33574;DHT22;20085;50.832;4.392;2022-08-14T15:19:01;33.80;28.50
33574;DHT22;20085;50.832;4.392;2022-08-14T15:21:26;33.80;28.30
33574;DHT22;20085;50.832;4.392;2022-08-14T15:23:52;33.70;28.50
33574;DHT22;20085;50.832;4.392;2022-08-14T15:26:18;33.70;29.10
33574;DHT22;20085;50.832;4.392;2022-08-14T15:28:44;33.70;28.50
33574;DHT22;20085;50.832;4.392;2022-08-14T15:31:10;33.70;28.70
33574;DHT22;20085;50.832;4.392;2022-08-14T15:33:35;33.60;28.70
33574;DHT22;20085;50.832;4.392;2022-08-14T15:36:19;33.60;29.00
33574;DHT22;20085;50.832;4.392;2022-08-14T15:38:46;33.50;28.70
33574;DHT22;20085;50.832;4.392;2022-08-14T15:41:13;33.40;28.50
33574;DHT22;20085;50.832;4.392;2022-08-14T15:43:38;33.40;28.40
33574;DHT22;20085;50.832;4.392;2022-08-14T15:46:06;33.40;28.80
33574;DHT22;20085;50.832;4.392;2022-08-14T15:48:32;33.40;28.30
33574;DHT22;20085;50.832;4.392;2022-08-14T15:51:00;33.40;28.30
33574;DHT22;20085;50.832;4.392;2022-08-14T15:53:26;33.40;28.40
33574;DHT22;20085;50.832;4.392;2022-08-14T15:55:53;33.40;28.40